KGSO METAR and TAF | Updated Today

KGSO METAR

Piedmont Triad International Airport

Observation time: 13 min. ago

KGSO 301854Z 23010KT 10SM FEW250 13/M05 A3003 RMK AO2 SLP172 T01331050

Need help? Read our tutorial on how to read METARs or read the parsed version below.

Piedmont Triad International Airport (KGSO) METAR

  • Weather conditions on Tue, 30 Nov 2021 18:54:00 +0000 (13 min. ago):
  • Present conditions: Dry
  • Clouds: A few at 7620 meters
  • Visibility: 16093 meters
  • Wind: 230 degrees at 10 knots
  • Temperature: 13 celsius
  • Dew point: -5 celsius
  • Pressure: 30.03 inHg
  • Remarks: AO2 SLP172 T01331050


Useful to know...

KGSO TAF

Piedmont Triad International Airport

KGSO 301720Z 3018/0118 23012G18KT P6SM FEW080 FEW250 FM302200 VRB05KT P6SM FEW250
Observation time: 1:47 hr. ago
Need help? Read our tutorial on how to read TAFs or read the parsed version below.

Parsed version of TAF for Piedmont Triad International Airport (KGSO)

  • From 30 November at 18:00 UTC, to day 01 of the month at 18:00 UTC
  • Clouds: A few at 2438 meters; a few at 7620 meters
  • Wind: 230 degrees at 12
  • From day 30 of the month at 22:00 UTC
  • Clouds: A few at 7620 meters
  • Wind: Variable at 5